Time;durP1;ratioP1;P1;durP2;ratioP2;P2;SDS_P1;SDS_P2;PMS_P1;PMS_P2;Temp;Humidity;BMP_temperature;BMP_pressure;BME280_temperature;BME280_humidity;BME280_pressure;Samples;Min_cycle;Max_cycle;Signal;HPM_P1;HPM_P2
2023/07/04 00:00:20;;;;;;;7.97;5.50;;;;;;;26.90;58.00;98561.72;2063056;28;20056;-49
2023/07/04 00:01:24;;;;;;;8.93;5.22;;;;;;;26.88;57.87;98558.44;2060577;28;20052;-48
2023/07/04 00:02:24;;;;;;;13.00;5.55;;;;;;;26.84;58.16;98560.06;2062984;28;20125;-49
2023/07/04 00:03:27;;;;;;;18.42;7.13;;;;;;;26.81;58.23;98563.28;2060446;28;20055;-48
2023/07/04 00:04:29;;;;;;;9.35;5.43;;;;;;;26.75;58.64;98561.63;2063674;28;20512;-49
2023/07/04 00:05:31;;;;;;;11.05;5.55;;;;;;;26.72;58.65;98564.84;2065370;28;20460;-49
2023/07/04 00:06:36;;;;;;;13.38;6.13;;;;;;;26.72;58.71;98564.84;2062575;28;20050;-51
2023/07/04 00:07:41;;;;;;;13.23;6.32;;;;;;;26.75;58.23;98567.06;2064631;28;20122;-52
2023/07/04 00:08:43;;;;;;;7.82;5.97;;;;;;;26.81;57.78;98565.19;2065369;28;20192;-49
2023/07/04 00:09:45;;;;;;;14.00;6.38;;;;;;;26.84;57.95;98568.22;2063475;28;20123;-49
2023/07/04 00:10:47;;;;;;;10.68;5.38;;;;;;;26.87;57.64;98564.16;2062904;28;20145;-50
2023/07/04 00:11:50;;;;;;;15.65;6.25;;;;;;;26.89;57.70;98570.97;2061131;28;20045;-51
2023/07/04 00:12:51;;;;;;;9.32;5.57;;;;;;;26.87;58.15;98569.59;2064124;28;20057;-49
2023/07/04 00:13:53;;;;;;;12.05;5.00;;;;;;;26.87;57.99;98577.75;2062873;28;20744;-49
2023/07/04 00:14:53;;;;;;;9.77;4.50;;;;;;;26.84;57.93;98570.94;2064635;28;20053;-49
2023/07/04 00:15:56;;;;;;;13.95;5.20;;;;;;;26.87;58.02;98578.56;2060731;28;20050;-49
2023/07/04 00:16:57;;;;;;;10.45;5.45;;;;;;;26.87;57.95;98575.84;2063950;28;20532;-50
2023/07/04 00:17:59;;;;;;;9.35;6.25;;;;;;;26.88;57.98;98584.84;2062893;28;20073;-49
2023/07/04 00:19:03;;;;;;;12.48;6.13;;;;;;;26.89;57.46;98581.88;2063920;28;20070;-49
2023/07/04 00:20:07;;;;;;;8.45;4.97;;;;;;;26.88;57.93;98579.38;2063359;28;20073;-50
2023/07/04 00:21:13;;;;;;;10.25;5.30;;;;;;;26.87;57.90;98578.56;2061564;28;20654;-49
2023/07/04 00:22:17;;;;;;;11.85;5.75;;;;;;;26.82;58.02;98581.25;2061639;28;20046;-47
2023/07/04 00:23:20;;;;;;;12.15;6.13;;;;;;;26.80;57.77;98572.53;2063797;28;20053;-48
2023/07/04 00:24:22;;;;;;;10.30;5.68;;;;;;;26.80;57.87;98574.41;2062829;28;20050;-52
2023/07/04 00:25:22;;;;;;;9.95;4.93;;;;;;;26.80;58.33;98579.88;2061368;28;20081;-50
2023/07/04 00:26:29;;;;;;;14.85;6.22;;;;;;;26.80;57.82;98572.53;2062562;28;20053;-56
2023/07/04 00:27:33;;;;;;;15.88;5.93;;;;;;;26.82;57.83;98581.25;2063055;28;20554;-48
2023/07/04 00:28:38;;;;;;;11.35;5.55;;;;;;;26.83;58.02;98577.47;2062937;28;20069;-53
2023/07/04 00:29:40;;;;;;;11.65;5.35;;;;;;;26.82;57.91;98575.00;2062951;28;20846;-51
2023/07/04 00:30:42;;;;;;;8.70;5.05;;;;;;;26.83;57.84;98576.63;2062847;28;20042;-55
2023/07/04 00:31:44;;;;;;;10.00;5.07;;;;;;;26.84;57.66;98572.84;2059209;28;20065;-53
2023/07/04 00:32:46;;;;;;;8.73;4.82;;;;;;;26.88;57.61;98573.94;2062855;28;20053;-57
2023/07/04 00:33:48;;;;;;;7.70;4.97;;;;;;;26.88;57.25;98566.59;2063605;28;20051;-51
2023/07/04 00:34:50;;;;;;;7.88;5.25;;;;;;;26.88;57.42;98566.59;2062525;28;20046;-50
2023/07/04 00:36:00;;;;;;;10.18;5.60;;;;;;;26.87;57.46;98570.41;2065113;28;20049;-52
2023/07/04 00:37:02;;;;;;;8.65;5.15;;;;;;;26.87;57.53;98567.69;2062684;28;20108;-48
2023/07/04 00:38:04;;;;;;;8.43;5.45;;;;;;;26.86;57.50;98571.50;2062461;28;21244;-53
2023/07/04 00:39:07;;;;;;;12.35;6.30;;;;;;;26.79;57.98;98570.88;2065608;28;21223;-53
2023/07/04 00:40:12;;;;;;;7.90;4.72;;;;;;;26.78;58.06;98569.25;2062288;28;20056;-50
2023/07/04 00:41:16;;;;;;;10.23;5.07;;;;;;;26.78;57.56;98566.53;2060970;28;20433;-55
2023/07/04 00:42:17;;;;;;;10.45;5.70;;;;;;;26.81;57.33;98571.44;2061773;28;20068;-52
2023/07/04 00:43:19;;;;;;;7.75;4.97;;;;;;;26.82;57.63;98564.09;2062300;28;20195;-48
2023/07/04 00:44:24;;;;;;;8.73;5.70;;;;;;;26.82;57.81;98559.47;2060917;28;20050;-47
2023/07/04 00:45:27;;;;;;;11.85;5.85;;;;;;;26.83;57.35;98561.13;2063092;28;20050;-50
2023/07/04 00:46:38;;;;;;;8.45;5.15;;;;;;;26.81;57.54;98557.03;2062200;28;20104;-51
2023/07/04 00:47:46;;;;;;;9.38;5.38;;;;;;;26.79;57.76;98562.72;2060703;28;20125;-49
2023/07/04 00:48:48;;;;;;;12.82;5.40;;;;;;;26.77;58.04;98556.72;2061779;28;20578;-48
2023/07/04 00:49:57;;;;;;;7.78;5.07;;;;;;;26.80;57.52;98566.25;2061692;28;20455;-48
2023/07/04 00:51:04;;;;;;;11.77;5.82;;;;;;;26.83;57.60;98566.59;2061725;28;20052;-49
2023/07/04 00:52:09;;;;;;;11.05;5.63;;;;;;;26.83;57.34;98561.13;2063612;28;20057;-47
2023/07/04 00:53:15;;;;;;;10.90;5.15;;;;;;;26.85;57.32;98564.41;2061201;28;20038;-49
2023/07/04 00:54:17;;;;;;;10.02;5.53;;;;;;;26.87;57.32;98556.00;2060770;28;20065;-51
2023/07/04 00:55:20;;;;;;;8.73;4.88;;;;;;;26.88;57.03;98558.44;2061962;28;20046;-51
2023/07/04 00:56:25;;;;;;;8.07;4.97;;;;;;;26.88;57.04;98561.16;2059568;28;20053;-50
2023/07/04 00:57:31;;;;;;;7.10;4.65;;;;;;;26.87;57.46;98554.09;2060495;28;20230;-52
2023/07/04 00:58:32;;;;;;;9.02;4.88;;;;;;;26.87;57.43;98556.00;2064226;28;20050;-50
2023/07/04 00:59:36;;;;;;;8.32;5.35;;;;;;;26.86;57.61;98549.72;2062298;28;20082;-50
2023/07/04 01:00:38;;;;;;;10.75;5.95;;;;;;;26.86;57.51;98544.28;2063268;28;20061;-48
2023/07/04 01:01:42;;;;;;;11.45;5.35;;;;;;;26.87;57.10;98545.91;2063033;28;20046;-51
2023/07/04 01:02:45;;;;;;;8.50;5.28;;;;;;;26.86;57.36;98547.00;2061017;28;20103;-48
2023/07/04 01:03:48;;;;;;;13.10;5.25;;;;;;;26.85;57.37;98541.81;2061721;28;20054;-48
2023/07/04 01:04:53;;;;;;;7.38;4.65;;;;;;;26.87;57.25;98545.09;2062507;28;20556;-48
2023/07/04 01:06:00;;;;;;;10.27;5.35;;;;;;;26.84;57.14;98537.47;2062971;28;20065;-52
2023/07/04 01:07:12;;;;;;;7.40;4.97;;;;;;;26.84;56.91;98546.44;2064576;28;20054;-48
2023/07/04 01:08:19;;;;;;;8.77;4.95;;;;;;;26.85;57.35;98547.25;2061082;28;20137;-48
2023/07/04 01:09:24;;;;;;;15.73;5.80;;;;;;;26.82;57.43;98551.31;2058996;28;20699;-49
2023/07/04 01:10:30;;;;;;;12.25;4.72;;;;;;;26.82;57.38;98553.22;2060467;28;20046;-48
2023/07/04 01:11:42;;;;;;;8.95;4.28;;;;;;;26.80;57.06;98550.78;2064292;28;20081;-49
2023/07/04 01:12:44;;;;;;;9.77;4.35;;;;;;;26.80;57.17;98550.78;2060742;28;20389;-49
2023/07/04 01:13:46;;;;;;;8.25;4.70;;;;;;;26.83;57.17;98552.13;2059930;28;20060;-52
2023/07/04 01:14:47;;;;;;;10.05;4.93;;;;;;;26.82;57.05;98548.59;2062445;28;20058;-53
2023/07/04 01:15:49;;;;;;;7.80;4.97;;;;;;;26.82;57.04;98545.88;2065454;28;20108;-53
2023/07/04 01:16:50;;;;;;;8.15;4.57;;;;;;;26.83;56.84;98547.53;2063397;28;20134;-50
2023/07/04 01:17:54;;;;;;;6.65;4.63;;;;;;;26.82;57.20;98545.06;2063634;28;20054;-52
2023/07/04 01:18:57;;;;;;;7.82;4.30;;;;;;;26.80;57.00;98549.94;2062275;28;20060;-52
2023/07/04 01:20:00;;;;;;;8.98;5.15;;;;;;;26.80;57.07;98542.63;2062226;28;20058;-55
2023/07/04 01:21:05;;;;;;;12.93;5.03;;;;;;;26.82;56.96;98548.59;2061897;28;20483;-49
2023/07/04 01:22:24;;;;;;;8.23;4.97;;;;;;;26.79;56.84;98551.84;2062755;28;20160;-51
2023/07/04 01:23:33;;;;;;;7.60;5.15;;;;;;;26.81;56.77;98546.97;2062278;28;20133;-50
2023/07/04 01:24:46;;;;;;;10.15;5.57;;;;;;;26.79;57.20;98548.31;2062422;28;20043;-48
2023/07/04 01:25:53;;;;;;;12.55;5.25;;;;;;;26.82;56.84;98545.88;2063107;28;20564;-52
2023/07/04 01:26:56;;;;;;;6.78;5.00;;;;;;;26.83;57.08;98543.97;2064471;28;20045;-52
2023/07/04 01:28:03;;;;;;;9.23;5.30;;;;;;;26.83;56.96;98549.41;2063652;28;20057;-53
2023/07/04 01:29:08;;;;;;;7.65;4.22;;;;;;;26.77;57.10;98551.28;2062371;28;20050;-48
2023/07/04 01:30:10;;;;;;;9.23;4.45;;;;;;;26.74;57.41;98546.34;2064149;28;20053;-50
2023/07/04 01:31:13;;;;;;;9.07;4.75;;;;;;;26.78;57.02;98547.50;2063786;28;20060;-53
2023/07/04 01:32:14;;;;;;;6.80;4.55;;;;;;;26.83;56.71;98552.13;2062746;28;20129;-53
2023/07/04 01:33:16;;;;;;;7.47;4.57;;;;;;;26.82;56.77;98548.59;2064929;28;20947;-51
2023/07/04 01:34:20;;;;;;;7.22;4.90;;;;;;;26.80;57.10;98544.50;2065694;28;20073;-51
2023/07/04 01:35:22;;;;;;;7.00;4.70;;;;;;;26.76;57.14;98552.34;2062651;28;20057;-48
2023/07/04 01:36:27;;;;;;;6.25;4.32;;;;;;;26.77;56.78;98555.91;2064081;28;20480;-49
2023/07/04 01:37:29;;;;;;;9.27;4.75;;;;;;;26.78;57.02;98554.84;2061779;28;20069;-55
2023/07/04 01:38:30;;;;;;;6.70;4.35;;;;;;;26.81;56.71;98562.47;2064457;28;20153;-50
2023/07/04 01:39:32;;;;;;;12.10;5.05;;;;;;;26.85;56.43;98563.59;2065538;28;20131;-57
2023/07/04 01:40:34;;;;;;;9.25;4.38;;;;;;;26.87;56.71;98562.25;2064594;28;20061;-51
2023/07/04 01:41:36;;;;;;;9.95;4.65;;;;;;;26.86;56.50;98568.78;2062531;28;20702;-50
2023/07/04 01:42:38;;;;;;;10.32;5.18;;;;;;;26.87;56.60;98570.41;2063050;28;20057;-53
2023/07/04 01:43:40;;;;;;;8.55;4.97;;;;;;;26.86;57.02;98566.06;2064090;28;20073;-49
2023/07/04 01:44:41;;;;;;;9.48;4.97;;;;;;;26.87;56.38;98570.41;2064133;28;20133;-49
2023/07/04 01:45:45;;;;;;;10.15;4.70;;;;;;;26.88;56.49;98568.50;2064427;28;20842;-49
2023/07/04 01:46:46;;;;;;;6.65;4.05;;;;;;;26.86;56.41;98563.34;2064802;28;20054;-53
2023/07/04 01:47:50;;;;;;;10.00;4.65;;;;;;;26.88;56.52;98560.34;2065653;28;20058;-49
2023/07/04 01:48:51;;;;;;;7.03;4.20;;;;;;;26.87;56.44;98562.25;2062371;28;20050;-49
2023/07/04 01:49:53;;;;;;;9.85;4.60;;;;;;;26.89;56.27;98559.28;2063213;28;20084;-52
2023/07/04 01:50:54;;;;;;;6.05;4.05;;;;;;;26.87;56.30;98562.25;2061535;28;20046;-56
2023/07/04 01:51:56;;;;;;;9.00;5.18;;;;;;;26.86;56.20;98563.34;2063120;28;20042;-50
2023/07/04 01:52:57;;;;;;;9.02;4.88;;;;;;;26.84;56.74;98568.22;2065739;28;20184;-50
2023/07/04 01:53:59;;;;;;;8.43;4.35;;;;;;;26.85;56.36;98564.41;2060512;28;20046;-56
2023/07/04 01:55:00;;;;;;;8.68;5.07;;;;;;;26.87;56.53;98564.97;2062962;28;20058;-50
2023/07/04 01:56:01;;;;;;;7.43;4.43;;;;;;;26.90;56.54;98560.91;2063291;28;20120;-50
2023/07/04 01:57:05;;;;;;;7.28;5.15;;;;;;;26.91;56.24;98562.53;2061076;28;20129;-53
2023/07/04 01:58:09;;;;;;;9.80;5.22;;;;;;;26.91;56.15;98557.94;2063308;28;20068;-48
2023/07/04 01:59:09;;;;;;;8.13;5.03;;;;;;;26.91;56.09;98557.09;2063835;28;20085;-52
2023/07/04 02:00:12;;;;;;;12.00;5.13;;;;;;;26.92;56.38;98558.75;2062918;28;20048;-52
2023/07/04 02:01:14;;;;;;;5.85;4.10;;;;;;;26.90;56.27;98561.72;2063023;28;20046;-51
2023/07/04 02:02:16;;;;;;;8.20;5.00;;;;;;;26.92;56.16;98566.91;2063102;28;20049;-52
2023/07/04 02:03:17;;;;;;;7.30;4.05;;;;;;;26.92;55.86;98564.19;2064417;28;22218;-53
2023/07/04 02:04:18;;;;;;;9.63;4.97;;;;;;;26.91;56.00;98567.97;2063806;28;20149;-47
2023/07/04 02:05:19;;;;;;;8.55;4.65;;;;;;;26.92;56.07;98569.66;2060746;28;20084;-52
2023/07/04 02:06:21;;;;;;;7.05;4.20;;;;;;;26.92;55.80;98573.19;2061523;28;20050;-50
2023/07/04 02:07:22;;;;;;;9.40;5.15;;;;;;;26.92;56.18;98572.38;2062828;28;20062;-49
2023/07/04 02:08:24;;;;;;;7.95;4.10;;;;;;;26.93;55.90;98574.81;2063386;28;20051;-52
2023/07/04 02:09:26;;;;;;;10.60;4.60;;;;;;;26.93;55.84;98572.09;2063159;28;20057;-53
2023/07/04 02:10:27;;;;;;;8.48;4.22;;;;;;;26.92;56.18;98580.53;2062094;28;20053;-51
2023/07/04 02:11:28;;;;;;;5.75;3.70;;;;;;;26.94;55.83;98583.78;2063458;28;20168;-49
2023/07/04 02:12:29;;;;;;;6.75;4.65;;;;;;;26.91;55.71;98574.28;2062460;28;20146;-49
2023/07/04 02:13:33;;;;;;;10.68;4.32;;;;;;;26.94;55.83;98578.34;2062144;28;20485;-52
2023/07/04 02:14:33;;;;;;;7.40;4.22;;;;;;;26.92;56.10;98578.63;2065018;28;20077;-49
2023/07/04 02:15:35;;;;;;;7.93;4.38;;;;;;;26.91;56.10;98577.00;2062762;28;20068;-50
2023/07/04 02:16:36;;;;;;;5.95;4.18;;;;;;;26.89;56.14;98579.16;2060450;28;20070;-47
2023/07/04 02:17:38;;;;;;;9.80;4.47;;;;;;;26.90;55.96;98572.63;2061023;28;20066;-47
2023/07/04 02:18:39;;;;;;;7.15;4.68;;;;;;;26.92;55.66;98575.09;2061964;28;20441;-47
2023/07/04 02:19:41;;;;;;;9.25;4.18;;;;;;;26.90;55.86;98578.06;2065703;28;20042;-49
2023/07/04 02:20:42;;;;;;;13.68;6.00;;;;;;;26.89;55.94;98570.16;2062185;28;20057;-50
2023/07/04 02:21:44;;;;;;;5.95;4.07;;;;;;;26.90;55.88;98575.34;2063810;28;20042;-50
2023/07/04 02:22:45;;;;;;;6.10;4.43;;;;;;;26.90;55.80;98578.06;2062504;28;20050;-49
2023/07/04 02:23:47;;;;;;;7.32;4.25;;;;;;;26.90;55.85;98582.69;2061630;28;20072;-47
2023/07/04 02:24:48;;;;;;;7.63;4.03;;;;;;;26.91;55.66;98574.28;2061835;28;20562;-51
2023/07/04 02:25:50;;;;;;;9.32;4.43;;;;;;;26.90;55.74;98574.53;2063539;28;20136;-50
2023/07/04 02:26:50;;;;;;;12.23;3.72;;;;;;;26.90;55.74;98572.63;2060925;28;20057;-49
2023/07/04 02:27:52;;;;;;;7.10;4.35;;;;;;;26.90;56.01;98577.25;2064367;28;20057;-54
2023/07/04 02:28:55;;;;;;;6.43;4.03;;;;;;;26.91;55.97;98573.44;2061694;28;20042;-53
2023/07/04 02:29:57;;;;;;;7.38;3.95;;;;;;;26.92;55.54;98570.47;2062892;28;20041;-49
2023/07/04 02:30:59;;;;;;;7.32;4.55;;;;;;;26.93;55.64;98572.09;2061225;28;20045;-54
2023/07/04 02:32:01;;;;;;;9.57;5.03;;;;;;;26.92;55.76;98570.47;2062378;28;20050;-51
2023/07/04 02:33:02;;;;;;;8.90;4.00;;;;;;;26.91;55.44;98568.84;2061639;28;20066;-51
2023/07/04 02:34:04;;;;;;;6.82;4.32;;;;;;;26.92;55.95;98569.66;2063993;28;20050;-49
2023/07/04 02:35:05;;;;;;;11.32;4.40;;;;;;;26.91;55.86;98568.84;2061910;28;20057;-50
2023/07/04 02:36:11;;;;;;;7.07;3.83;;;;;;;26.90;55.79;98571.78;2064673;28;20152;-49
2023/07/04 02:37:12;;;;;;;5.45;3.58;;;;;;;26.91;55.74;98573.44;2063416;28;20042;-48
2023/07/04 02:38:14;;;;;;;10.85;4.60;;;;;;;26.92;55.42;98575.91;2064987;28;20049;-49
2023/07/04 02:39:15;;;;;;;9.27;4.20;;;;;;;26.92;55.53;98570.47;2062831;28;20584;-48
2023/07/04 02:40:17;;;;;;;10.15;4.88;;;;;;;26.93;55.64;98571.28;2064419;28;20056;-51
2023/07/04 02:41:18;;;;;;;5.30;3.78;;;;;;;26.94;55.68;98576.47;2063110;28;20084;-48
2023/07/04 02:42:20;;;;;;;6.43;4.25;;;;;;;26.94;55.75;98570.19;2065672;28;20080;-50
2023/07/04 02:43:21;;;;;;;7.43;4.20;;;;;;;26.96;55.66;98578.91;2064181;28;20073;-49
2023/07/04 02:44:24;;;;;;;7.63;4.00;;;;;;;26.96;55.36;98577.00;2064853;28;20081;-48
2023/07/04 02:45:25;;;;;;;9.32;4.18;;;;;;;26.95;55.24;98575.38;2064964;28;20085;-49
2023/07/04 02:46:26;;;;;;;7.05;4.13;;;;;;;26.91;55.38;98573.44;2063748;28;20567;-48
2023/07/04 02:47:27;;;;;;;6.63;4.07;;;;;;;26.90;55.41;98571.78;2061846;28;20078;-49
2023/07/04 02:48:29;;;;;;;8.68;4.72;;;;;;;26.92;55.64;98575.09;2064674;28;20054;-49
2023/07/04 02:49:30;;;;;;;6.65;4.10;;;;;;;26.93;55.59;98577.53;2063610;28;20048;-49
2023/07/04 02:50:32;;;;;;;9.90;4.18;;;;;;;26.91;55.76;98570.69;2064782;28;20209;-48
2023/07/04 02:51:33;;;;;;;9.38;3.85;;;;;;;26.90;55.73;98578.06;2063645;28;20058;-49
2023/07/04 02:52:35;;;;;;;7.40;4.03;;;;;;;26.91;55.41;98573.44;2065691;28;20089;-49
2023/07/04 02:53:36;;;;;;;5.97;3.92;;;;;;;26.92;55.35;98570.47;2063990;28;20046;-48
2023/07/04 02:54:38;;;;;;;7.18;4.32;;;;;;;26.96;55.28;98574.28;2064895;28;20137;-49
2023/07/04 02:55:38;;;;;;;5.07;3.78;;;;;;;26.95;55.25;98578.09;2062809;28;20057;-48
2023/07/04 02:56:40;;;;;;;9.20;5.13;;;;;;;26.94;55.49;98576.47;2062975;28;20056;-49
2023/07/04 02:57:41;;;;;;;7.20;4.10;;;;;;;26.90;55.80;98571.78;2066044;28;20045;-51
2023/07/04 02:58:43;;;;;;;9.43;4.88;;;;;;;26.89;55.95;98570.97;2064415;28;20161;-49
2023/07/04 02:59:45;;;;;;;7.65;4.13;;;;;;;26.89;55.66;98576.44;2062815;28;20053;-50
2023/07/04 03:00:49;;;;;;;6.85;3.80;;;;;;;26.90;55.88;98575.34;2064477;28;20091;-53
2023/07/04 03:01:51;;;;;;;7.05;4.15;;;;;;;26.88;55.94;98565.78;2064518;28;20060;-50
2023/07/04 03:02:52;;;;;;;7.47;4.40;;;;;;;26.90;55.74;98569.06;2064893;28;20065;-48
2023/07/04 03:03:53;;;;;;;10.80;5.20;;;;;;;26.91;55.79;98570.69;2064288;28;20057;-51
2023/07/04 03:04:55;;;;;;;9.57;4.03;;;;;;;26.86;55.88;98568.78;2064238;28;20093;-48
2023/07/04 03:05:56;;;;;;;7.57;4.22;;;;;;;26.86;56.03;98567.97;2065352;28;20527;-48
2023/07/04 03:06:58;;;;;;;8.65;4.75;;;;;;;26.80;56.19;98569.81;2064082;28;20133;-49
2023/07/04 03:07:59;;;;;;;8.93;4.68;;;;;;;26.80;56.38;98567.09;2064419;28;20475;-49
2023/07/04 03:09:00;;;;;;;7.78;4.40;;;;;;;26.79;56.13;98562.72;2064549;28;20049;-49
2023/07/04 03:10:02;;;;;;;7.68;4.05;;;;;;;26.85;56.31;98566.31;2066170;28;20104;-49
2023/07/04 03:11:04;;;;;;;6.55;4.38;;;;;;;26.84;56.10;98562.78;2065384;28;20050;-49
2023/07/04 03:12:06;;;;;;;12.52;4.32;;;;;;;26.83;55.94;98560.28;2065053;28;20046;-49
2023/07/04 03:13:08;;;;;;;6.05;4.25;;;;;;;26.83;56.41;98557.56;2062883;28;20058;-48
2023/07/04 03:14:09;;;;;;;6.90;3.88;;;;;;;26.80;56.24;98567.09;2065742;28;20136;-52
2023/07/04 03:15:12;;;;;;;9.00;4.60;;;;;;;26.82;56.32;98562.19;2065960;28;20054;-48
2023/07/04 03:16:13;;;;;;;7.55;3.90;;;;;;;26.83;55.95;98568.47;2060502;28;20513;-48
2023/07/04 03:17:14;;;;;;;9.90;4.32;;;;;;;26.85;56.11;98564.41;2062322;28;20050;-49
2023/07/04 03:18:15;;;;;;;8.18;5.25;;;;;;;26.85;56.26;98566.31;2062668;28;20404;-53
2023/07/04 03:19:17;;;;;;;6.57;4.22;;;;;;;26.84;55.91;98561.97;2065368;28;20080;-51
2023/07/04 03:20:18;;;;;;;8.73;5.22;;;;;;;26.83;55.90;98561.13;2062402;28;20046;-48
2023/07/04 03:21:20;;;;;;;8.68;5.15;;;;;;;26.85;56.04;98567.13;2061122;28;20474;-49
2023/07/04 03:22:21;;;;;;;11.85;4.47;;;;;;;26.86;55.62;98566.06;2061094;28;20069;-49
2023/07/04 03:23:23;;;;;;;6.50;3.85;;;;;;;26.85;56.14;98567.13;2063718;28;20119;-49
2023/07/04 03:24:24;;;;;;;6.80;4.07;;;;;;;26.84;55.85;98562.78;2062765;28;20053;-49
2023/07/04 03:25:26;;;;;;;8.45;5.13;;;;;;;26.81;56.00;98570.63;2062727;28;20054;-50
2023/07/04 03:26:26;;;;;;;5.85;4.15;;;;;;;26.83;55.91;98569.31;2063703;28;20341;-48
2023/07/04 03:27:28;;;;;;;5.72;3.65;;;;;;;26.85;55.77;98574.47;2064480;28;20054;-50
2023/07/04 03:28:29;;;;;;;9.25;4.13;;;;;;;26.85;55.69;98575.28;2060268;28;20061;-51
2023/07/04 03:29:31;;;;;;;8.15;4.60;;;;;;;26.85;55.59;98569.84;2062804;28;20057;-54
2023/07/04 03:30:33;;;;;;;12.85;4.50;;;;;;;26.87;55.62;98578.56;2061120;28;20520;-50
2023/07/04 03:31:35;;;;;;;8.93;3.90;;;;;;;26.88;55.80;98571.22;2060815;28;20058;-49
2023/07/04 03:32:36;;;;;;;8.73;4.25;;;;;;;26.90;55.90;98564.44;2065333;28;20046;-50
2023/07/04 03:33:38;;;;;;;6.05;3.97;;;;;;;26.89;55.79;98570.16;2061224;28;20054;-49
2023/07/04 03:34:39;;;;;;;8.93;4.30;;;;;;;26.87;56.02;98566.88;2062222;28;20669;-51
2023/07/04 03:35:41;;;;;;;6.28;4.05;;;;;;;26.87;55.67;98562.25;2063163;28;20056;-49
2023/07/04 03:36:42;;;;;;;6.55;4.53;;;;;;;26.87;56.00;98562.25;2063873;28;20053;-48
2023/07/04 03:37:43;;;;;;;6.32;4.38;;;;;;;26.89;55.74;98564.72;2059842;28;20090;-48
2023/07/04 03:38:45;;;;;;;7.82;4.20;;;;;;;26.88;55.44;98563.06;2061328;28;20058;-49
2023/07/04 03:39:46;;;;;;;10.93;5.20;;;;;;;26.88;55.82;98565.78;2060867;28;20174;-47
2023/07/04 03:40:48;;;;;;;4.18;3.70;;;;;;;26.84;55.92;98561.97;2063002;28;20855;-50
2023/07/04 03:41:49;;;;;;;9.27;4.32;;;;;;;26.86;55.58;98568.78;2062949;28;20054;-49
2023/07/04 03:42:51;;;;;;;7.03;4.10;;;;;;;26.86;55.99;98563.34;2064125;28;20088;-50
2023/07/04 03:43:51;;;;;;;9.48;4.80;;;;;;;26.86;55.90;98562.53;2063906;28;20416;-49
2023/07/04 03:44:54;;;;;;;9.27;4.55;;;;;;;26.86;55.51;98565.25;2064331;28;20046;-49
2023/07/04 03:45:56;;;;;;;4.82;3.50;;;;;;;26.86;55.69;98560.63;2061695;28;20101;-50
2023/07/04 03:46:58;;;;;;;7.22;4.35;;;;;;;26.85;55.91;98569.03;2060715;28;20054;-51
2023/07/04 03:47:59;;;;;;;7.57;4.65;;;;;;;26.83;55.57;98563.88;2062253;28;20045;-50
2023/07/04 03:49:01;;;;;;;7.90;3.90;;;;;;;26.80;55.63;98567.09;2062141;28;20073;-50
2023/07/04 03:50:02;;;;;;;6.90;4.15;;;;;;;26.83;56.07;98561.13;2062309;28;20136;-50
2023/07/04 03:51:04;;;;;;;7.28;4.47;;;;;;;26.82;55.55;98559.47;2062346;28;20129;-48
2023/07/04 03:52:06;;;;;;;6.05;4.50;;;;;;;26.83;55.74;98565.75;2052724;28;20049;-52
2023/07/04 03:53:08;;;;;;;13.38;4.88;;;;;;;26.80;55.73;98556.22;2062097;28;20101;-49
2023/07/04 03:54:09;;;;;;;8.57;4.95;;;;;;;26.79;55.82;98564.63;2061942;28;20520;-46
2023/07/04 03:55:11;;;;;;;9.82;4.82;;;;;;;26.81;55.78;98557.03;2064415;28;20080;-49
2023/07/04 03:56:12;;;;;;;9.70;4.32;;;;;;;26.83;55.91;98561.13;2061734;28;20648;-49
2023/07/04 03:57:13;;;;;;;6.43;4.38;;;;;;;26.80;55.85;98561.66;2063339;28;20125;-53
2023/07/04 03:58:14;;;;;;;9.93;5.03;;;;;;;26.79;55.98;98553.75;2059662;28;20046;-53
2023/07/04 03:59:16;;;;;;;7.28;4.53;;;;;;;26.81;56.10;98557.03;2062927;28;20046;-51
2023/07/04 04:00:17;;;;;;;7.53;4.38;;;;;;;26.79;56.10;98554.56;2058862;28;20613;-54
2023/07/04 04:01:22;;;;;;;8.00;4.57;;;;;;;26.79;56.20;98554.56;2064225;28;20053;-54
2023/07/04 04:02:22;;;;;;;8.70;4.93;;;;;;;26.79;56.16;98561.91;2061008;28;20042;-49
2023/07/04 04:03:25;;;;;;;7.80;4.93;;;;;;;26.81;55.82;98560.56;2061383;28;20056;-50
2023/07/04 04:04:25;;;;;;;8.43;4.60;;;;;;;26.83;56.22;98565.75;2062761;28;20522;-48
2023/07/04 04:05:28;;;;;;;8.00;4.57;;;;;;;26.82;55.95;98558.66;2061699;28;20045;-51
2023/07/04 04:06:29;;;;;;;8.15;4.35;;;;;;;26.85;56.00;98556.22;2061062;28;20492;-51
2023/07/04 04:07:31;;;;;;;8.65;5.10;;;;;;;26.85;56.08;98558.16;2061425;28;20046;-49
2023/07/04 04:08:32;;;;;;;8.43;4.35;;;;;;;26.84;56.21;98557.31;2062289;28;20042;-53
2023/07/04 04:09:34;;;;;;;9.07;4.65;;;;;;;26.84;56.02;98556.50;2063228;28;20046;-49
2023/07/04 04:10:34;;;;;;;10.02;4.78;;;;;;;26.83;55.86;98558.41;2061657;28;20054;-50
2023/07/04 04:11:36;;;;;;;7.05;4.35;;;;;;;26.83;56.14;98558.41;2062817;28;20516;-48
2023/07/04 04:12:37;;;;;;;5.63;3.83;;;;;;;26.84;56.36;98556.50;2063208;28;20140;-48
2023/07/04 04:13:39;;;;;;;7.28;3.70;;;;;;;26.85;56.27;98552.69;2064815;28;20050;-52
2023/07/04 04:14:40;;;;;;;10.55;5.28;;;;;;;26.86;56.48;98557.91;2062071;28;20058;-48
2023/07/04 04:15:42;;;;;;;13.32;6.28;;;;;;;26.86;56.27;98549.72;2064005;28;20129;-49
2023/07/04 04:16:44;;;;;;;6.97;4.70;;;;;;;26.84;55.99;98542.91;2064131;28;20060;-49
2023/07/04 04:17:47;;;;;;;10.48;4.97;;;;;;;26.82;56.14;98542.34;2064056;28;20069;-48
2023/07/04 04:18:51;;;;;;;8.63;4.35;;;;;;;26.82;56.30;98545.88;2063892;28;20054;-49
2023/07/04 04:19:52;;;;;;;6.22;4.28;;;;;;;26.79;56.70;98542.84;2063488;28;20471;-50
2023/07/04 04:20:53;;;;;;;10.20;4.75;;;;;;;26.75;56.83;98537.13;2058191;28;20049;-49
2023/07/04 04:21:55;;;;;;;9.35;5.20;;;;;;;26.72;56.65;98543.09;2058550;28;20088;-48
2023/07/04 04:22:56;;;;;;;12.98;5.07;;;;;;;26.63;57.09;98539.19;2064861;28;20057;-49
2023/07/04 04:23:58;;;;;;;8.20;4.78;;;;;;;26.55;57.58;98539.66;2065586;28;20053;-49
2023/07/04 04:24:59;;;;;;;11.43;5.20;;;;;;;26.55;57.27;98536.94;2063824;28;20126;-48
2023/07/04 04:26:03;;;;;;;13.73;5.70;;;;;;;26.55;57.25;98547.81;2055523;28;20050;-48
2023/07/04 04:27:08;;;;;;;5.78;4.43;;;;;;;26.65;57.21;98543.28;2061235;28;20638;-48
2023/07/04 04:28:10;;;;;;;7.88;3.75;;;;;;;26.70;56.93;98542.53;2061665;28;20061;-49
2023/07/04 04:29:11;;;;;;;8.02;4.55;;;;;;;26.73;57.06;98545.53;2063676;28;20056;-49
2023/07/04 04:30:13;;;;;;;9.55;5.63;;;;;;;26.76;56.54;98548.81;2061943;28;20046;-50
2023/07/04 04:31:15;;;;;;;11.05;5.00;;;;;;;26.73;56.98;98550.97;2063320;28;20933;-48
2023/07/04 04:32:18;;;;;;;6.72;4.75;;;;;;;26.75;56.99;98542.56;2060644;28;20041;-49
2023/07/04 04:33:20;;;;;;;6.88;3.88;;;;;;;26.73;56.71;98544.72;2057022;28;20148;-49
2023/07/04 04:34:22;;;;;;;5.55;4.28;;;;;;;26.74;56.92;98547.19;2064240;28;21329;-53
2023/07/04 04:35:25;;;;;;;12.15;4.45;;;;;;;26.76;56.51;98549.63;2063473;28;20077;-49
2023/07/04 04:36:26;;;;;;;9.52;5.82;;;;;;;26.77;56.40;98550.44;2062660;28;20041;-50
2023/07/04 04:37:28;;;;;;;9.48;3.88;;;;;;;26.72;56.71;98553.97;2063920;28;20500;-53
2023/07/04 04:38:29;;;;;;;6.80;4.10;;;;;;;26.70;56.72;98547.97;2061261;28;20057;-53
2023/07/04 04:39:31;;;;;;;7.18;4.07;;;;;;;26.71;56.78;98549.59;2061887;28;20133;-54
2023/07/04 04:40:32;;;;;;;8.13;4.68;;;;;;;26.73;56.28;98552.88;2061344;28;20158;-54
2023/07/04 04:41:36;;;;;;;10.07;5.10;;;;;;;26.74;56.73;98551.78;2060493;28;20690;-54
2023/07/04 04:42:37;;;;;;;9.05;4.97;;;;;;;26.73;56.39;98550.97;2062463;28;20077;-53
2023/07/04 04:43:39;;;;;;;9.35;4.72;;;;;;;26.72;56.26;98545.81;2062638;28;21809;-50
2023/07/04 04:44:40;;;;;;;9.27;4.38;;;;;;;26.71;56.70;98547.69;2062228;28;20049;-52
2023/07/04 04:45:43;;;;;;;7.25;4.85;;;;;;;26.73;56.58;98547.44;2061503;28;20957;-54
2023/07/04 04:46:48;;;;;;;12.32;5.10;;;;;;;26.75;56.29;98539.84;2061149;28;20599;-54
2023/07/04 04:47:53;;;;;;;11.85;4.50;;;;;;;26.74;56.47;98547.19;2060385;28;20068;-52
2023/07/04 04:48:54;;;;;;;7.97;5.20;;;;;;;26.72;56.50;98546.63;2061788;28;20089;-52
2023/07/04 04:49:56;;;;;;;9.40;5.22;;;;;;;26.70;56.54;98540.63;2061949;28;20050;-55
2023/07/04 04:50:57;;;;;;;11.80;4.55;;;;;;;26.71;56.58;98546.88;2062796;28;21108;-51
2023/07/04 04:51:59;;;;;;;8.32;5.40;;;;;;;26.71;56.41;98550.41;2062543;28;20052;-48
2023/07/04 04:53:00;;;;;;;8.48;4.35;;;;;;;26.72;56.30;98548.53;2062630;28;20092;-47